createdAt,value
2019-01-24T00:04:43.503Z,55.85
2019-01-24T00:07:12.701Z,55.89
2019-01-24T00:09:41.880Z,56.05
2019-01-24T00:12:11.084Z,55.31
2019-01-24T00:14:40.261Z,55.33
2019-01-24T00:17:09.458Z,55.01
2019-01-24T00:19:38.630Z,54.48
2019-01-24T00:22:07.837Z,54.73
2019-01-24T00:24:37.013Z,54.16
2019-01-24T00:27:06.222Z,54.39
2019-01-24T00:29:35.402Z,54.25
2019-01-24T00:32:04.609Z,54.45
2019-01-24T00:34:34.131Z,53.96
2019-01-24T00:37:03.316Z,54.10
2019-01-24T00:39:32.520Z,53.89
2019-01-24T00:42:01.694Z,53.00
2019-01-24T00:44:30.898Z,53.64
2019-01-24T00:47:00.080Z,53.66
2019-01-24T00:49:29.623Z,54.08
2019-01-24T00:51:58.800Z,54.40
2019-01-24T00:54:28.004Z,53.83
2019-01-24T00:56:57.181Z,53.85
2019-01-24T00:59:26.390Z,53.97
2019-01-24T01:01:55.576Z,54.13
2019-01-24T01:04:29.676Z,54.06
2019-01-24T01:06:55.697Z,54.07
2019-01-24T01:09:24.909Z,54.65
2019-01-24T01:11:54.109Z,54.03
2019-01-24T01:14:23.295Z,53.82
2019-01-24T01:16:52.492Z,54.37
2019-01-24T01:19:21.673Z,55.80
2019-01-24T01:21:50.889Z,56.41
2019-01-24T01:24:20.436Z,56.21
2019-01-24T01:26:49.613Z,55.70
2019-01-24T01:29:18.816Z,55.51
2019-01-24T01:31:48.001Z,54.77
2019-01-24T01:34:17.174Z,54.34
2019-01-24T01:36:46.384Z,54.22
2019-01-24T01:39:15.562Z,54.08
2019-01-24T01:41:45.024Z,53.66
2019-01-24T01:44:14.235Z,53.52
2019-01-24T01:46:43.732Z,53.27
2019-01-24T01:49:12.914Z,52.95
2019-01-24T01:51:42.129Z,52.99
2019-01-24T01:54:11.307Z,52.79
2019-01-24T01:56:40.504Z,52.81
2019-01-24T01:59:09.736Z,52.52
2019-01-24T02:01:38.900Z,53.08
2019-01-24T02:04:08.075Z,52.96
2019-01-24T02:06:37.283Z,53.71
2019-01-24T02:09:48.183Z,53.47
2019-01-24T02:12:17.391Z,54.01
2019-01-24T02:14:46.570Z,54.39
2019-01-24T02:17:16.084Z,54.17
2019-01-24T02:19:45.287Z,54.45
2019-01-24T02:22:14.473Z,53.47
2019-01-24T02:24:43.650Z,53.09
2019-01-24T02:27:12.864Z,53.30
2019-01-24T02:29:42.037Z,53.26
2019-01-24T02:32:11.210Z,53.26
2019-01-24T02:34:40.777Z,52.45
2019-01-24T02:37:09.955Z,52.06
2019-01-24T02:39:39.177Z,51.46
2019-01-24T02:42:08.349Z,51.90
2019-01-24T02:44:37.551Z,52.23
2019-01-24T02:47:06.737Z,52.27
2019-01-24T02:49:35.922Z,52.22
2019-01-24T02:52:44.525Z,52.27
2019-01-24T02:55:53.700Z,52.49
2019-01-24T02:58:22.907Z,51.66
2019-01-24T03:00:52.102Z,51.82
2019-01-24T03:03:21.320Z,51.20
2019-01-24T03:05:50.502Z,51.13
2019-01-24T03:08:19.678Z,51.12
2019-01-24T03:10:48.882Z,50.85
2019-01-24T03:13:18.410Z,51.09
2019-01-24T03:15:47.627Z,51.25
2019-01-24T03:18:16.803Z,50.48
2019-01-24T03:20:45.980Z,50.60
2019-01-24T03:23:15.186Z,50.55
2019-01-24T03:25:44.360Z,50.30
2019-01-24T03:28:13.898Z,50.51
2019-01-24T03:30:50.449Z,50.65
2019-01-24T03:33:19.654Z,50.39
2019-01-24T03:38:57.398Z,51.61
2019-01-24T03:41:26.573Z,50.96
2019-01-24T03:43:56.082Z,51.13
2019-01-24T03:46:25.590Z,51.42
2019-01-24T03:48:54.778Z,51.07
2019-01-24T03:51:23.970Z,51.54
2019-01-24T03:53:53.492Z,52.24
2019-01-24T03:56:22.698Z,51.59
2019-01-24T03:58:51.877Z,52.96
2019-01-24T04:01:21.058Z,52.18
2019-01-24T04:06:45.815Z,51.72
2019-01-24T04:09:15.036Z,51.51
2019-01-24T04:11:44.207Z,51.71
2019-01-24T04:14:13.385Z,53.26
2019-01-24T04:16:42.588Z,52.79
2019-01-24T04:19:11.775Z,52.57
2019-01-24T04:24:16.628Z,52.71
2019-01-24T04:26:45.844Z,52.35
2019-01-24T04:29:15.021Z,52.35
2019-01-24T04:31:44.582Z,52.67
2019-01-24T04:34:13.774Z,52.76
2019-01-24T04:36:42.952Z,52.65
2019-01-24T04:39:12.531Z,52.99
2019-01-24T04:42:00.676Z,53.99
2019-01-24T04:44:48.816Z,53.54
2019-01-24T04:47:17.995Z,53.24
2019-01-24T04:49:47.169Z,53.87
2019-01-24T04:52:16.718Z,53.48
2019-01-24T04:54:45.900Z,53.81
2019-01-24T04:57:15.099Z,55.38
2019-01-24T04:59:44.273Z,53.46
2019-01-24T05:02:13.474Z,53.89
2019-01-24T05:04:42.654Z,54.19
2019-01-24T05:07:11.831Z,54.55
2019-01-24T05:09:41.406Z,55.27
2019-01-24T05:12:11.023Z,55.26
2019-01-24T05:14:40.235Z,55.80
2019-01-24T05:17:09.424Z,55.95
2019-01-24T05:19:38.619Z,56.66
2019-01-24T05:22:07.927Z,56.59
2019-01-24T05:24:37.128Z,56.94
2019-01-24T05:27:06.610Z,56.26
2019-01-24T05:29:35.784Z,55.85
2019-01-24T05:32:05.412Z,55.86
2019-01-24T05:34:34.590Z,56.52
2019-01-24T05:37:03.793Z,55.92
2019-01-24T05:39:32.993Z,56.43
2019-01-24T05:42:02.170Z,56.66
2019-01-24T05:44:31.369Z,56.41
2019-01-24T05:47:00.556Z,56.84
2019-01-24T05:49:29.756Z,56.38
2019-01-24T05:51:58.927Z,57.54
2019-01-24T05:54:47.065Z,56.75
2019-01-24T05:57:16.239Z,57.10
2019-01-24T05:59:45.416Z,57.39
2019-01-24T06:02:14.933Z,57.20
2019-01-24T06:04:44.118Z,56.58
2019-01-24T06:07:13.343Z,56.65
2019-01-24T06:09:42.537Z,57.05
2019-01-24T06:12:12.118Z,57.32
2019-01-24T06:14:41.604Z,57.33
2019-01-24T06:17:10.808Z,57.33
2019-01-24T06:19:40.021Z,57.18
2019-01-24T06:22:09.229Z,57.54
2019-01-24T06:24:38.399Z,57.18
2019-01-24T06:27:07.568Z,56.77
2019-01-24T06:29:36.765Z,56.16
2019-01-24T06:35:14.517Z,56.24
2019-01-24T06:37:43.793Z,56.24
2019-01-24T06:40:14.162Z,56.44
2019-01-24T06:42:43.665Z,56.78
2019-01-24T06:45:18.004Z,56.46
2019-01-24T06:47:47.496Z,56.46
2019-01-24T06:50:16.913Z,56.82
2019-01-24T06:53:05.023Z,56.91
2019-01-24T06:55:34.228Z,57.20
2019-01-24T06:58:03.406Z,57.75
2019-01-24T07:00:32.599Z,57.27
2019-01-24T07:03:01.779Z,56.68
2019-01-24T07:05:30.988Z,56.63
2019-01-24T07:08:00.163Z,56.34
2019-01-24T07:11:08.754Z,56.04
2019-01-24T07:13:37.932Z,56.21
2019-01-24T07:16:07.136Z,56.47
2019-01-24T07:18:36.637Z,56.19
2019-01-24T07:21:05.839Z,56.09
2019-01-24T07:23:35.023Z,55.85
2019-01-24T07:26:04.218Z,56.51
2019-01-24T07:28:33.405Z,56.59
2019-01-24T07:31:02.605Z,56.54
2019-01-24T07:33:31.780Z,57.01
2019-01-24T07:36:02.374Z,57.28
2019-01-24T07:38:32.678Z,57.51
2019-01-24T07:41:02.177Z,57.55
2019-01-24T07:43:31.358Z,57.81
2019-01-24T07:46:00.560Z,58.27
2019-01-24T07:48:29.737Z,58.45
2019-01-24T07:53:47.111Z,58.47
2019-01-24T07:56:16.287Z,58.52
2019-01-24T07:58:45.817Z,58.33
2019-01-24T08:01:14.994Z,58.29
2019-01-24T08:03:44.519Z,58.27
2019-01-24T08:06:13.698Z,57.98
2019-01-24T08:08:42.877Z,57.27
2019-01-24T08:11:12.424Z,57.18
2019-01-24T08:13:41.598Z,56.65
2019-01-24T08:18:46.186Z,56.84
2019-01-24T08:21:54.776Z,55.70
2019-01-24T08:24:23.951Z,56.14
2019-01-24T08:26:53.154Z,56.99
2019-01-24T08:29:22.333Z,57.18
2019-01-24T08:31:51.535Z,56.54
2019-01-24T08:34:20.709Z,56.62
2019-01-24T08:36:49.930Z,56.82
2019-01-24T08:39:19.113Z,57.04
2019-01-24T08:41:48.327Z,56.86
2019-01-24T08:44:17.864Z,57.15
2019-01-24T08:46:47.038Z,57.66
2019-01-24T08:49:16.236Z,57.43
2019-01-24T08:51:45.414Z,56.74
2019-01-24T08:54:14.614Z,57.44
2019-01-24T08:56:43.787Z,57.51
2019-01-24T08:59:13.003Z,56.63
2019-01-24T09:01:42.451Z,56.29
2019-01-24T09:04:11.651Z,56.17
2019-01-24T09:06:41.153Z,56.01
2019-01-24T09:09:10.703Z,54.54
2019-01-24T09:11:39.886Z,55.42
2019-01-24T09:14:09.088Z,55.70
2019-01-24T09:16:38.563Z,55.09
2019-01-24T09:19:07.843Z,54.35
2019-01-24T09:21:37.363Z,53.93
2019-01-24T09:24:06.542Z,53.15
2019-01-24T09:26:35.748Z,53.50
2019-01-24T09:29:04.928Z,53.68
2019-01-24T09:31:34.131Z,54.22
2019-01-24T09:34:03.658Z,53.74
2019-01-24T09:36:32.859Z,52.79
2019-01-24T09:39:02.030Z,52.45
2019-01-24T09:41:31.236Z,52.40
2019-01-24T09:44:00.755Z,52.46
2019-01-24T09:46:29.963Z,51.47
2019-01-24T09:48:59.140Z,51.38
2019-01-24T09:51:28.314Z,50.77
2019-01-24T09:53:57.525Z,50.42
2019-01-24T09:56:27.052Z,49.16
2019-01-24T09:58:56.250Z,48.45
2019-01-24T10:01:25.435Z,47.76
2019-01-24T10:03:54.636Z,47.22
2019-01-24T10:06:23.816Z,47.07
2019-01-24T10:08:53.015Z,45.72
2019-01-24T10:11:23.549Z,46.10
2019-01-24T10:13:53.389Z,45.57
2019-01-24T10:16:22.614Z,45.93
2019-01-24T10:18:51.823Z,46.28
2019-01-24T10:21:21.003Z,46.20
2019-01-24T10:23:50.182Z,46.50
2019-01-24T10:26:19.400Z,47.06
2019-01-24T10:28:48.588Z,47.87
2019-01-24T10:31:17.811Z,48.52
2019-01-24T10:33:47.011Z,48.87
2019-01-24T10:36:16.214Z,49.28
2019-01-24T10:38:45.765Z,49.26
2019-01-24T10:41:14.962Z,49.20
2019-01-24T10:43:44.152Z,49.50
2019-01-24T10:46:13.667Z,48.46
2019-01-24T10:51:31.314Z,48.46
2019-01-24T10:54:00.532Z,48.43
2019-01-24T10:56:29.735Z,48.30
2019-01-24T10:58:58.928Z,48.52
2019-01-24T11:01:28.128Z,48.69
2019-01-24T11:03:57.306Z,48.62
2019-01-24T11:06:26.487Z,48.70
2019-01-24T11:08:56.003Z,49.02
2019-01-24T11:11:25.174Z,48.91
2019-01-24T11:13:54.390Z,49.04
2019-01-24T11:16:23.585Z,49.90
2019-01-24T11:18:52.790Z,49.08
2019-01-24T11:21:21.978Z,49.20
2019-01-24T11:23:51.196Z,48.61
2019-01-24T11:26:20.366Z,47.81
2019-01-24T11:28:49.563Z,48.28
2019-01-24T11:31:18.786Z,46.81
2019-01-24T11:33:47.974Z,46.07
2019-01-24T11:36:17.181Z,45.92
2019-01-24T11:38:46.351Z,45.62
2019-01-24T11:41:15.551Z,44.96
2019-01-24T11:43:44.726Z,44.38
2019-01-24T11:46:13.921Z,44.61
2019-01-24T11:48:43.470Z,44.00
2019-01-24T11:51:12.810Z,43.86
2019-01-24T11:54:01.068Z,43.91
2019-01-24T11:56:30.284Z,44.14
2019-01-24T11:58:59.456Z,44.53
2019-01-24T12:01:28.636Z,45.15
2019-01-24T12:03:58.215Z,44.51
2019-01-24T12:06:27.717Z,44.54
2019-01-24T12:08:56.915Z,44.09
2019-01-24T12:11:26.734Z,43.95
2019-01-24T12:13:55.964Z,44.63
2019-01-24T12:16:25.110Z,44.34
2019-01-24T12:18:54.410Z,44.70
2019-01-24T12:21:23.591Z,45.03
2019-01-24T12:23:52.791Z,45.18
2019-01-24T12:26:22.019Z,45.40
2019-01-24T12:28:51.212Z,45.10
2019-01-24T12:31:20.429Z,45.45
2019-01-24T12:33:49.616Z,45.33
2019-01-24T12:36:19.504Z,44.77
2019-01-24T12:38:50.054Z,45.03
2019-01-24T12:41:19.254Z,44.40
2019-01-24T12:43:48.434Z,44.54
2019-01-24T12:46:18.020Z,44.01
2019-01-24T12:48:47.308Z,43.77
2019-01-24T12:51:16.735Z,43.87
2019-01-24T12:53:45.919Z,44.21
2019-01-24T12:56:15.461Z,44.33
2019-01-24T12:58:44.647Z,44.45
2019-01-24T13:01:13.855Z,44.09
2019-01-24T13:03:43.404Z,44.08
2019-01-24T13:06:12.970Z,43.88
2019-01-24T13:08:42.267Z,44.41
2019-01-24T13:11:11.438Z,44.39
2019-01-24T13:13:40.759Z,44.63
2019-01-24T13:16:09.935Z,44.32
2019-01-24T13:18:39.126Z,44.69
2019-01-24T13:21:08.299Z,44.33
2019-01-24T13:23:37.898Z,44.64
2019-01-24T13:26:07.371Z,44.55
2019-01-24T13:28:36.570Z,44.89
2019-01-24T13:31:05.773Z,45.95
2019-01-24T13:33:35.003Z,45.66
2019-01-24T13:39:12.944Z,45.40
2019-01-24T13:41:42.493Z,45.96
2019-01-24T13:44:13.029Z,46.55
2019-01-24T13:46:42.527Z,45.85
2019-01-24T13:49:11.722Z,46.13
2019-01-24T13:51:40.926Z,46.11
2019-01-24T13:54:10.122Z,46.29
2019-01-24T13:56:39.322Z,46.36
2019-01-24T13:59:08.499Z,46.44
2019-01-24T14:01:37.708Z,46.66
2019-01-24T14:04:13.055Z,46.89
2019-01-24T14:06:42.255Z,46.74
2019-01-24T14:09:11.550Z,47.35
2019-01-24T14:11:59.747Z,47.10
2019-01-24T14:14:29.054Z,47.01
2019-01-24T14:16:58.256Z,47.10
2019-01-24T14:19:27.793Z,46.44
2019-01-24T14:21:57.011Z,46.88
2019-01-24T14:24:26.185Z,46.51
2019-01-24T14:26:55.362Z,46.80
2019-01-24T14:29:24.589Z,46.64
2019-01-24T14:31:54.090Z,46.75
2019-01-24T14:34:23.292Z,46.52
2019-01-24T14:36:52.646Z,46.69
2019-01-24T14:39:21.841Z,46.59
2019-01-24T14:41:51.394Z,46.87
2019-01-24T14:44:20.604Z,46.99
2019-01-24T14:46:49.774Z,47.07
2019-01-24T14:49:19.792Z,47.18
2019-01-24T14:51:49.874Z,47.44
2019-01-24T14:54:19.050Z,47.30
2019-01-24T14:56:48.248Z,47.26
2019-01-24T14:59:17.724Z,47.57
2019-01-24T15:01:46.923Z,47.77
2019-01-24T15:04:16.098Z,47.25
2019-01-24T15:06:45.303Z,47.54
2019-01-24T15:09:14.475Z,47.35
2019-01-24T15:11:43.671Z,47.68
2019-01-24T15:14:12.993Z,47.52
2019-01-24T15:16:42.231Z,47.54
2019-01-24T15:19:11.714Z,47.67
2019-01-24T15:21:41.215Z,47.81
2019-01-24T15:24:10.419Z,48.11
2019-01-24T15:26:39.605Z,48.63
2019-01-24T15:29:09.218Z,48.72
2019-01-24T15:31:38.401Z,48.76
2019-01-24T15:34:07.579Z,48.99
2019-01-24T15:36:36.782Z,48.64
2019-01-24T15:39:46.341Z,48.96
2019-01-24T15:42:15.861Z,48.98
2019-01-24T15:44:45.368Z,49.24
2019-01-24T15:47:14.581Z,49.51
2019-01-24T15:49:43.753Z,50.14
2019-01-24T15:55:01.115Z,50.56
2019-01-24T15:57:30.289Z,50.25
2019-01-24T15:59:59.499Z,50.12
2019-01-24T16:02:28.679Z,50.73
2019-01-24T16:04:57.851Z,50.73
2019-01-24T16:07:27.059Z,50.64
2019-01-24T16:09:56.243Z,50.62
2019-01-24T16:12:25.791Z,50.98
2019-01-24T16:14:54.967Z,51.43
2019-01-24T16:17:24.158Z,52.05
2019-01-24T16:19:53.351Z,53.04
2019-01-24T16:22:22.526Z,53.28
2019-01-24T16:24:51.731Z,53.94
2019-01-24T16:27:21.283Z,54.42
2019-01-24T16:29:50.516Z,55.48
2019-01-24T16:32:19.699Z,55.99
2019-01-24T16:34:49.178Z,56.77
2019-01-24T16:37:18.359Z,56.71
2019-01-24T16:39:47.571Z,57.84
2019-01-24T16:42:16.746Z,57.78
2019-01-24T16:44:45.923Z,58.20
2019-01-24T16:47:15.123Z,59.01
2019-01-24T16:49:44.317Z,59.63
2019-01-24T16:52:13.525Z,59.69
2019-01-24T16:54:42.698Z,61.14
2019-01-24T16:57:11.896Z,62.23
2019-01-24T16:59:41.067Z,63.18
2019-01-24T17:02:10.298Z,62.03
2019-01-24T17:04:39.445Z,62.31
2019-01-24T17:07:09.189Z,63.22
2019-01-24T17:09:38.834Z,64.36
2019-01-24T17:12:08.376Z,63.87
2019-01-24T17:14:37.555Z,64.33
2019-01-24T17:17:07.797Z,64.84
2019-01-24T17:19:55.993Z,64.90
2019-01-24T17:22:25.161Z,64.63
2019-01-24T17:24:54.360Z,64.02
2019-01-24T17:27:23.540Z,63.78
2019-01-24T17:29:53.103Z,63.25
2019-01-24T17:33:02.366Z,63.20
2019-01-24T17:35:31.563Z,63.36
2019-01-24T17:38:00.818Z,62.87
2019-01-24T17:40:49.099Z,63.60
2019-01-24T17:43:37.408Z,62.99
2019-01-24T17:46:06.618Z,62.81
2019-01-24T17:48:36.117Z,62.19
2019-01-24T17:51:06.616Z,62.09
2019-01-24T17:53:35.864Z,61.48
2019-01-24T17:56:05.243Z,62.18
2019-01-24T17:58:35.205Z,61.41
2019-01-24T18:01:04.525Z,61.53
2019-01-24T18:03:33.720Z,61.14
2019-01-24T18:06:02.902Z,60.97
2019-01-24T18:08:32.127Z,60.78
2019-01-24T18:11:01.300Z,60.41
2019-01-24T18:13:30.479Z,60.99
2019-01-24T18:15:59.995Z,60.87
2019-01-24T18:18:29.176Z,60.80
2019-01-24T18:21:37.925Z,60.39
2019-01-24T18:24:07.104Z,61.17
2019-01-24T18:26:36.656Z,62.51
2019-01-24T18:29:45.231Z,62.21
2019-01-24T18:32:14.850Z,62.14
2019-01-24T18:34:44.039Z,61.57
2019-01-24T18:37:13.245Z,61.15
2019-01-24T18:39:42.561Z,61.85
2019-01-24T18:42:31.231Z,61.06
2019-01-24T18:45:01.336Z,61.05
2019-01-24T18:47:30.512Z,60.28
2019-01-24T18:49:59.820Z,60.89
2019-01-24T18:52:29.003Z,59.52
2019-01-24T18:54:58.520Z,58.75
2019-01-24T18:57:27.714Z,58.73
2019-01-24T18:59:56.908Z,58.44
2019-01-24T19:02:26.419Z,59.00
2019-01-24T19:04:55.619Z,58.72
2019-01-24T19:07:24.798Z,58.39
2019-01-24T19:09:53.996Z,58.29
2019-01-24T19:12:23.184Z,58.24
2019-01-24T19:14:52.515Z,58.50
2019-01-24T19:17:21.702Z,58.59
2019-01-24T19:19:51.280Z,58.73
2019-01-24T19:22:20.736Z,58.59
2019-01-24T19:24:49.938Z,57.57
2019-01-24T19:27:19.116Z,57.62
2019-01-24T19:29:48.294Z,57.63
2019-01-24T19:32:17.812Z,57.84
2019-01-24T19:34:47.001Z,58.54
2019-01-24T19:37:16.515Z,57.90
2019-01-24T19:39:45.790Z,57.74
2019-01-24T19:42:15.320Z,57.93
2019-01-24T19:44:44.501Z,57.86
2019-01-24T19:47:13.699Z,56.90
2019-01-24T19:52:31.084Z,57.29
2019-01-24T19:55:00.253Z,57.66
2019-01-24T19:57:29.481Z,58.12
2019-01-24T19:59:58.681Z,57.82
2019-01-24T20:02:28.255Z,56.87
2019-01-24T20:04:57.758Z,57.86
2019-01-24T20:07:27.368Z,58.17
2019-01-24T20:09:56.569Z,58.93
2019-01-24T20:12:25.743Z,59.52
2019-01-24T20:14:54.942Z,59.72
2019-01-24T20:17:24.155Z,59.46
2019-01-24T20:19:53.319Z,59.86
2019-01-24T20:22:22.508Z,59.99
2019-01-24T20:24:51.952Z,59.95
2019-01-24T20:27:21.130Z,59.24
2019-01-24T20:29:50.337Z,59.85
2019-01-24T20:32:19.524Z,58.92
2019-01-24T20:34:48.727Z,58.55
2019-01-24T20:37:18.250Z,58.37
2019-01-24T20:39:48.408Z,58.82
2019-01-24T20:42:17.585Z,59.25
2019-01-24T20:44:47.256Z,60.06
2019-01-24T20:47:16.435Z,60.05
2019-01-24T20:49:45.651Z,59.93
2019-01-24T20:52:15.174Z,59.54
2019-01-24T20:54:44.379Z,59.91
2019-01-24T20:57:13.561Z,61.12
2019-01-24T20:59:42.789Z,62.15
2019-01-24T21:02:12.851Z,61.78
2019-01-24T21:04:42.036Z,62.60
2019-01-24T21:07:11.596Z,62.75
2019-01-24T21:09:40.776Z,63.06
2019-01-24T21:12:09.980Z,62.87
2019-01-24T21:14:39.598Z,62.01
2019-01-24T21:17:08.801Z,62.71
2019-01-24T21:19:38.099Z,61.65
2019-01-24T21:22:07.285Z,61.69
2019-01-24T21:24:36.518Z,61.76
2019-01-24T21:27:05.720Z,59.95
2019-01-24T21:29:34.946Z,59.81
2019-01-24T21:32:04.136Z,59.75
2019-01-24T21:34:33.472Z,59.95
2019-01-24T21:37:02.893Z,60.38
2019-01-24T21:39:32.097Z,60.68
2019-01-24T21:42:02.155Z,61.25
2019-01-24T21:44:31.363Z,60.80
2019-01-24T21:47:00.545Z,60.61
2019-01-24T21:49:29.734Z,60.49
2019-01-24T21:51:58.951Z,60.03
2019-01-24T21:54:28.615Z,60.15
2019-01-24T21:56:57.873Z,59.79
2019-01-24T21:59:27.608Z,60.54
2019-01-24T22:01:57.996Z,60.01
2019-01-24T22:04:27.319Z,60.30
2019-01-24T22:06:56.843Z,60.40
2019-01-24T22:09:29.287Z,59.49
2019-01-24T22:11:56.960Z,59.24
2019-01-24T22:14:26.497Z,59.21
2019-01-24T22:16:57.084Z,59.19
2019-01-24T22:19:26.300Z,58.52
2019-01-24T22:21:55.479Z,58.94
2019-01-24T22:24:24.658Z,58.47
2019-01-24T22:26:53.866Z,59.84
2019-01-24T22:29:23.053Z,58.83
2019-01-24T22:31:52.269Z,58.38
2019-01-24T22:34:21.804Z,57.75
2019-01-24T22:36:51.307Z,58.00
2019-01-24T22:39:20.521Z,57.69
2019-01-24T22:41:49.716Z,58.51
2019-01-24T22:44:19.206Z,59.18
2019-01-24T22:46:48.412Z,60.20
2019-01-24T22:49:17.605Z,59.30
2019-01-24T22:51:46.822Z,59.67
2019-01-24T22:54:15.999Z,59.95
2019-01-24T22:56:45.228Z,60.03
2019-01-24T22:59:14.406Z,59.99
2019-01-24T23:02:05.910Z,60.21
2019-01-24T23:04:35.097Z,59.90
2019-01-24T23:07:04.290Z,59.80
2019-01-24T23:09:33.496Z,59.09
2019-01-24T23:12:02.685Z,58.93
2019-01-24T23:14:31.894Z,59.15
2019-01-24T23:17:01.066Z,59.05
2019-01-24T23:19:30.271Z,59.08
2019-01-24T23:21:59.748Z,59.65
2019-01-24T23:24:29.307Z,59.29
2019-01-24T23:26:58.508Z,59.76
2019-01-24T23:29:27.693Z,60.07
2019-01-24T23:31:56.915Z,60.25
2019-01-24T23:34:26.102Z,60.04
2019-01-24T23:36:55.312Z,59.81
2019-01-24T23:39:24.500Z,60.32
2019-01-24T23:41:53.677Z,60.40
2019-01-24T23:44:22.896Z,60.96
2019-01-24T23:46:52.104Z,60.50
2019-01-24T23:49:21.303Z,60.60
2019-01-24T23:51:50.482Z,61.84
2019-01-24T23:54:19.693Z,61.85
2019-01-24T23:56:48.866Z,61.68
2019-01-24T23:59:18.064Z,60.98
